Port Barre, Louisiana
Current Conditions -  °F | °C
As of 6:15 AM on Thursday 29 Jan 2015 (Local Time) from KOPL Reporting Station
Clear Clear  
Wind Chill: 11°   Ceiling: Unl
Heat Index: 11°   Visibility: 10mi
Dew Point: 10°   Wind: 3mph
Humidity: 97%   Direction: 190°S
Pressure: 30.19"   Gusts: NA
Location:  30.56°N, 91.95°W
Report Text: KOPL 291215Z AUTO 19003KT 10SM CLR 11/10 A3019 RMK AO2 T01070102
Loading
Personal Weather Stations






























Interactive Weather Map New forecast layout! Learn more

10-Day Weather Forecast

Advertisements
Track Severe Weather on mobile